sensor_id;sensor_type;location;lat;lon;timestamp;pressure;altitude;pressure_sealevel;temperature;humidity
11223;BME280;5668;52.012;8.724;2023-07-31T00:00:19;99606.31;;;18.39;100.00
11223;BME280;5668;52.012;8.724;2023-07-31T00:02:46;99605.50;;;18.38;100.00
11223;BME280;5668;52.012;8.724;2023-07-31T00:05:13;99605.81;;;18.35;100.00
11223;BME280;5668;52.012;8.724;2023-07-31T00:07:40;99597.13;;;18.35;100.00
11223;BME280;5668;52.012;8.724;2023-07-31T00:10:11;99597.44;;;18.40;100.00
11223;BME280;5668;52.012;8.724;2023-07-31T00:12:39;99592.78;;;18.42;100.00
11223;BME280;5668;52.012;8.724;2023-07-31T00:15:07;99592.00;;;18.41;100.00
11223;BME280;5668;52.012;8.724;2023-07-31T00:17:34;99591.19;;;18.41;100.00
11223;BME280;5668;52.012;8.724;2023-07-31T00:20:01;99586.53;;;18.43;100.00
11223;BME280;5668;52.012;8.724;2023-07-31T00:22:29;99587.03;;;18.46;100.00
11223;BME280;5668;52.012;8.724;2023-07-31T00:24:56;99586.19;;;18.46;100.00
11223;BME280;5668;52.012;8.724;2023-07-31T00:27:25;99583.41;;;18.47;100.00
11223;BME280;5668;52.012;8.724;2023-07-31T00:29:53;99583.22;;;18.49;100.00
11223;BME280;5668;52.012;8.724;2023-07-31T00:32:20;99578.59;;;18.51;100.00
11223;BME280;5668;52.012;8.724;2023-07-31T00:34:47;99575.28;;;18.57;100.00
11223;BME280;5668;52.012;8.724;2023-07-31T00:37:14;99569.03;;;18.58;100.00
11223;BME280;5668;52.012;8.724;2023-07-31T00:39:42;99570.31;;;18.62;100.00
11223;BME280;5668;52.012;8.724;2023-07-31T00:42:09;99569.31;;;18.63;100.00
11223;BME280;5668;52.012;8.724;2023-07-31T00:44:38;99574.38;;;18.65;100.00
11223;BME280;5668;52.012;8.724;2023-07-31T00:47:05;99564.50;;;18.67;100.00
11223;BME280;5668;52.012;8.724;2023-07-31T00:49:33;99565.34;;;18.67;100.00
11223;BME280;5668;52.012;8.724;2023-07-31T00:52:00;99557.44;;;18.67;100.00
11223;BME280;5668;52.012;8.724;2023-07-31T00:54:28;99561.72;;;18.68;100.00
11223;BME280;5668;52.012;8.724;2023-07-31T00:56:55;99551.19;;;18.68;100.00
11223;BME280;5668;52.012;8.724;2023-07-31T00:59:23;99556.28;;;18.70;100.00
11223;BME280;5668;52.012;8.724;2023-07-31T01:01:52;99549.19;;;18.70;100.00
11223;BME280;5668;52.012;8.724;2023-07-31T01:04:20;99550.00;;;18.71;100.00
11223;BME280;5668;52.012;8.724;2023-07-31T01:06:52;99543.56;;;18.73;100.00
11223;BME280;5668;52.012;8.724;2023-07-31T01:09:32;99542.72;;;18.73;100.00
11223;BME280;5668;52.012;8.724;2023-07-31T01:12:03;99548.00;;;18.73;100.00
11223;BME280;5668;52.012;8.724;2023-07-31T01:14:30;99540.91;;;18.73;100.00
11223;BME280;5668;52.012;8.724;2023-07-31T01:16:59;99533.03;;;18.73;100.00
11223;BME280;5668;52.012;8.724;2023-07-31T01:19:27;99533.03;;;18.73;100.00
11223;BME280;5668;52.012;8.724;2023-07-31T01:22:11;99545.19;;;18.74;100.00
11223;BME280;5668;52.012;8.724;2023-07-31T01:24:51;99538.28;;;18.73;100.00
11223;BME280;5668;52.012;8.724;2023-07-31T01:27:26;99540.47;;;18.70;100.00
11223;BME280;5668;52.012;8.724;2023-07-31T01:30:00;99527.31;;;18.70;100.00
11223;BME280;5668;52.012;8.724;2023-07-31T01:32:30;99529.31;;;18.68;100.00
11223;BME280;5668;52.012;8.724;2023-07-31T01:34:58;99528.84;;;18.64;100.00
11223;BME280;5668;52.012;8.724;2023-07-31T01:37:28;99531.50;;;18.64;100.00
11223;BME280;5668;52.012;8.724;2023-07-31T01:39:56;99530.03;;;18.62;100.00
11223;BME280;5668;52.012;8.724;2023-07-31T01:42:24;99529.19;;;18.61;100.00
11223;BME280;5668;52.012;8.724;2023-07-31T01:44:51;99530.84;;;18.62;100.00
11223;BME280;5668;52.012;8.724;2023-07-31T01:47:18;99525.25;;;18.57;100.00
11223;BME280;5668;52.012;8.724;2023-07-31T01:49:46;99527.91;;;18.57;100.00
11223;BME280;5668;52.012;8.724;2023-07-31T01:52:13;99527.13;;;18.57;100.00
11223;BME280;5668;52.012;8.724;2023-07-31T01:54:40;99528.41;;;18.52;100.00
11223;BME280;5668;52.012;8.724;2023-07-31T01:57:07;99530.22;;;18.52;100.00
11223;BME280;5668;52.012;8.724;2023-07-31T01:59:36;99523.50;;;18.49;100.00
11223;BME280;5668;52.012;8.724;2023-07-31T02:02:03;99518.44;;;18.48;100.00
11223;BME280;5668;52.012;8.724;2023-07-31T02:04:31;99519.75;;;18.44;100.00
11223;BME280;5668;52.012;8.724;2023-07-31T02:06:58;99513.84;;;18.42;100.00
11223;BME280;5668;52.012;8.724;2023-07-31T02:09:25;99521.13;;;18.40;100.00
11223;BME280;5668;52.012;8.724;2023-07-31T02:11:52;99513.81;;;18.27;100.00
11223;BME280;5668;52.012;8.724;2023-07-31T02:14:19;99510.78;;;18.15;100.00
11223;BME280;5668;52.012;8.724;2023-07-31T02:16:48;99506.72;;;18.05;100.00
11223;BME280;5668;52.012;8.724;2023-07-31T02:19:15;99513.19;;;18.02;100.00
11223;BME280;5668;52.012;8.724;2023-07-31T02:21:42;99509.78;;;17.94;100.00
11223;BME280;5668;52.012;8.724;2023-07-31T02:24:09;99515.22;;;17.92;100.00
11223;BME280;5668;52.012;8.724;2023-07-31T02:26:37;99507.69;;;17.89;100.00
11223;BME280;5668;52.012;8.724;2023-07-31T02:29:04;99503.69;;;17.93;100.00
11223;BME280;5668;52.012;8.724;2023-07-31T02:31:31;99506.00;;;17.96;100.00
11223;BME280;5668;52.012;8.724;2023-07-31T02:34:00;99501.03;;;18.01;100.00
11223;BME280;5668;52.012;8.724;2023-07-31T02:36:27;99494.59;;;18.04;100.00
11223;BME280;5668;52.012;8.724;2023-07-31T02:38:54;99490.78;;;18.06;100.00
11223;BME280;5668;52.012;8.724;2023-07-31T02:41:21;99487.50;;;18.04;100.00
11223;BME280;5668;52.012;8.724;2023-07-31T02:43:48;99491.78;;;18.05;100.00
11223;BME280;5668;52.012;8.724;2023-07-31T02:46:16;99495.75;;;18.01;100.00
11223;BME280;5668;52.012;8.724;2023-07-31T02:48:43;99492.84;;;17.96;100.00
11223;BME280;5668;52.012;8.724;2023-07-31T02:51:11;99493.03;;;17.95;100.00
11223;BME280;5668;52.012;8.724;2023-07-31T02:53:38;99487.94;;;17.93;100.00
11223;BME280;5668;52.012;8.724;2023-07-31T02:56:06;99492.69;;;17.90;100.00
11223;BME280;5668;52.012;8.724;2023-07-31T02:58:33;99485.34;;;17.85;100.00
11223;BME280;5668;52.012;8.724;2023-07-31T03:01:00;99486.34;;;17.84;100.00
11223;BME280;5668;52.012;8.724;2023-07-31T03:03:28;99487.69;;;17.80;100.00
11223;BME280;5668;52.012;8.724;2023-07-31T03:05:55;99482.44;;;17.80;100.00
11223;BME280;5668;52.012;8.724;2023-07-31T03:08:24;99478.34;;;17.77;100.00
11223;BME280;5668;52.012;8.724;2023-07-31T03:10:51;99472.63;;;17.74;100.00
11223;BME280;5668;52.012;8.724;2023-07-31T03:13:18;99475.59;;;17.71;100.00
11223;BME280;5668;52.012;8.724;2023-07-31T03:15:45;99470.16;;;17.72;100.00
11223;BME280;5668;52.012;8.724;2023-07-31T03:18:12;99469.34;;;17.72;100.00
11223;BME280;5668;52.012;8.724;2023-07-31T03:20:42;99474.94;;;17.69;100.00
11223;BME280;5668;52.012;8.724;2023-07-31T03:23:10;99466.88;;;17.70;100.00
11223;BME280;5668;52.012;8.724;2023-07-31T03:25:39;99470.78;;;17.74;100.00
11223;BME280;5668;52.012;8.724;2023-07-31T03:28:06;99470.63;;;17.76;100.00
11223;BME280;5668;52.012;8.724;2023-07-31T03:30:36;99468.34;;;17.73;100.00
11223;BME280;5668;52.012;8.724;2023-07-31T03:33:04;99475.88;;;17.76;100.00
11223;BME280;5668;52.012;8.724;2023-07-31T03:35:31;99461.41;;;17.80;100.00
11223;BME280;5668;52.012;8.724;2023-07-31T03:37:58;99474.84;;;17.85;100.00
11223;BME280;5668;52.012;8.724;2023-07-31T03:40:25;99462.34;;;17.87;100.00
11223;BME280;5668;52.012;8.724;2023-07-31T03:42:54;99464.59;;;17.90;100.00
11223;BME280;5668;52.012;8.724;2023-07-31T03:45:21;99464.59;;;17.90;100.00
11223;BME280;5668;52.012;8.724;2023-07-31T03:47:48;99464.72;;;17.97;100.00
11223;BME280;5668;52.012;8.724;2023-07-31T03:50:16;99466.34;;;17.98;100.00
11223;BME280;5668;52.012;8.724;2023-07-31T03:52:44;99461.91;;;17.98;100.00
11223;BME280;5668;52.012;8.724;2023-07-31T03:55:11;99457.31;;;18.00;100.00
11223;BME280;5668;52.012;8.724;2023-07-31T03:57:38;99449.69;;;18.05;100.00
11223;BME280;5668;52.012;8.724;2023-07-31T04:02:39;99458.88;;;18.09;100.00
11223;BME280;5668;52.012;8.724;2023-07-31T04:05:06;99452.63;;;18.10;100.00
11223;BME280;5668;52.012;8.724;2023-07-31T04:07:34;99451.44;;;18.13;100.00
11223;BME280;5668;52.012;8.724;2023-07-31T04:10:01;99453.91;;;18.14;100.00
11223;BME280;5668;52.012;8.724;2023-07-31T04:12:29;99449.47;;;18.15;100.00
11223;BME280;5668;52.012;8.724;2023-07-31T04:14:56;99458.19;;;18.15;100.00
11223;BME280;5668;52.012;8.724;2023-07-31T04:17:23;99454.56;;;18.16;100.00
11223;BME280;5668;52.012;8.724;2023-07-31T04:19:52;99458.19;;;18.15;100.00
11223;BME280;5668;52.012;8.724;2023-07-31T04:22:19;99460.47;;;18.18;100.00
11223;BME280;5668;52.012;8.724;2023-07-31T04:24:46;99458.84;;;18.17;100.00
11223;BME280;5668;52.012;8.724;2023-07-31T04:27:14;99463.72;;;18.21;100.00
11223;BME280;5668;52.012;8.724;2023-07-31T04:29:41;99458.47;;;18.21;100.00
11223;BME280;5668;52.012;8.724;2023-07-31T04:32:10;99460.09;;;18.22;100.00
11223;BME280;5668;52.012;8.724;2023-07-31T04:34:37;99457.47;;;18.22;100.00
11223;BME280;5668;52.012;8.724;2023-07-31T04:37:06;99468.00;;;18.22;100.00
11223;BME280;5668;52.012;8.724;2023-07-31T04:39:33;99460.09;;;18.22;100.00
11223;BME280;5668;52.012;8.724;2023-07-31T04:42:00;99458.47;;;18.21;100.00
11223;BME280;5668;52.012;8.724;2023-07-31T04:44:27;99451.88;;;18.25;100.00
11223;BME280;5668;52.012;8.724;2023-07-31T04:46:54;99451.22;;;18.23;100.00
11223;BME280;5668;52.012;8.724;2023-07-31T04:49:22;99454.00;;;18.21;100.00
11223;BME280;5668;52.012;8.724;2023-07-31T04:51:49;99456.47;;;18.23;100.00
11223;BME280;5668;52.012;8.724;2023-07-31T04:54:17;99465.00;;;18.25;100.00
11223;BME280;5668;52.012;8.724;2023-07-31T04:56:44;99464.66;;;18.28;100.00
11223;BME280;5668;52.012;8.724;2023-07-31T04:59:12;99462.38;;;18.25;100.00
11223;BME280;5668;52.012;8.724;2023-07-31T05:01:39;99461.19;;;18.27;100.00
11223;BME280;5668;52.012;8.724;2023-07-31T05:04:06;99463.66;;;18.29;100.00
11223;BME280;5668;52.012;8.724;2023-07-31T05:06:33;99458.22;;;18.30;100.00
11223;BME280;5668;52.012;8.724;2023-07-31T05:09:01;99461.50;;;18.32;100.00
11223;BME280;5668;52.012;8.724;2023-07-31T05:11:29;99460.84;;;18.30;100.00
11223;BME280;5668;52.012;8.724;2023-07-31T05:13:56;99458.69;;;18.34;100.00
11223;BME280;5668;52.012;8.724;2023-07-31T05:16:23;99459.50;;;18.34;100.00
11223;BME280;5668;52.012;8.724;2023-07-31T05:18:51;99459.47;;;18.57;100.00
11223;BME280;5668;52.012;8.724;2023-07-31T05:21:18;99450.69;;;18.42;100.00
11223;BME280;5668;52.012;8.724;2023-07-31T05:23:45;99466.88;;;18.39;100.00
11223;BME280;5668;52.012;8.724;2023-07-31T05:26:13;99457.50;;;18.36;100.00
11223;BME280;5668;52.012;8.724;2023-07-31T05:28:42;99453.88;;;18.37;100.00
11223;BME280;5668;52.012;8.724;2023-07-31T05:31:09;99446.16;;;18.36;100.00
11223;BME280;5668;52.012;8.724;2023-07-31T05:33:36;99455.69;;;18.37;100.00
11223;BME280;5668;52.012;8.724;2023-07-31T05:36:04;99452.06;;;18.38;100.00
11223;BME280;5668;52.012;8.724;2023-07-31T05:38:31;99456.16;;;18.40;100.00
11223;BME280;5668;52.012;8.724;2023-07-31T05:40:58;99459.97;;;18.38;100.00
11223;BME280;5668;52.012;8.724;2023-07-31T05:43:25;99458.31;;;18.37;100.00
11223;BME280;5668;52.012;8.724;2023-07-31T05:45:54;99463.25;;;18.40;100.00
11223;BME280;5668;52.012;8.724;2023-07-31T05:48:21;99456.34;;;18.39;100.00
11223;BME280;5668;52.012;8.724;2023-07-31T05:50:48;99450.44;;;18.37;100.00
11223;BME280;5668;52.012;8.724;2023-07-31T05:53:15;99453.06;;;18.37;100.00
11223;BME280;5668;52.012;8.724;2023-07-31T05:55:43;99452.41;;;18.35;100.00
11223;BME280;5668;52.012;8.724;2023-07-31T05:58:10;99455.53;;;18.38;100.00
11223;BME280;5668;52.012;8.724;2023-07-31T06:00:37;99458.16;;;18.38;100.00
11223;BME280;5668;52.012;8.724;2023-07-31T06:03:06;99454.69;;;18.38;100.00
11223;BME280;5668;52.012;8.724;2023-07-31T06:05:33;99454.88;;;18.36;100.00
11223;BME280;5668;52.012;8.724;2023-07-31T06:08:00;99451.41;;;18.36;100.00
11223;BME280;5668;52.012;8.724;2023-07-31T06:10:28;99449.44;;;18.38;100.00
11223;BME280;5668;52.012;8.724;2023-07-31T06:12:55;99449.09;;;18.41;100.00
11223;BME280;5668;52.012;8.724;2023-07-31T06:15:23;99452.34;;;18.43;100.00
11223;BME280;5668;52.012;8.724;2023-07-31T06:17:50;99456.44;;;18.45;100.00
11223;BME280;5668;52.012;8.724;2023-07-31T06:20:20;99453.00;;;18.45;100.00
11223;BME280;5668;52.012;8.724;2023-07-31T06:22:47;99453.81;;;18.45;100.00
11223;BME280;5668;52.012;8.724;2023-07-31T06:25:15;99451.19;;;18.45;100.00
11223;BME280;5668;52.012;8.724;2023-07-31T06:27:42;99450.84;;;18.48;100.00
11223;BME280;5668;52.012;8.724;2023-07-31T06:30:10;99456.91;;;18.49;100.00
11223;BME280;5668;52.012;8.724;2023-07-31T06:32:37;99451.00;;;18.47;100.00
11223;BME280;5668;52.012;8.724;2023-07-31T06:35:06;99456.25;;;18.47;100.00
11223;BME280;5668;52.012;8.724;2023-07-31T06:37:35;99452.44;;;18.49;100.00
11223;BME280;5668;52.012;8.724;2023-07-31T06:40:04;99455.88;;;18.50;100.00
11223;BME280;5668;52.012;8.724;2023-07-31T06:42:33;99455.53;;;18.53;100.00
11223;BME280;5668;52.012;8.724;2023-07-31T06:45:01;99442.38;;;18.53;100.00
11223;BME280;5668;52.012;8.724;2023-07-31T06:47:28;99426.28;;;18.56;100.00
11223;BME280;5668;52.012;8.724;2023-07-31T06:49:56;99422.63;;;18.57;100.00
11223;BME280;5668;52.012;8.724;2023-07-31T06:52:23;99425.25;;;18.57;100.00
11223;BME280;5668;52.012;8.724;2023-07-31T06:55:03;99424.25;;;18.58;100.00
11223;BME280;5668;52.012;8.724;2023-07-31T06:57:30;99422.63;;;18.57;100.00
11223;BME280;5668;52.012;8.724;2023-07-31T06:59:57;99424.25;;;18.58;100.00
11223;BME280;5668;52.012;8.724;2023-07-31T07:02:24;99420.63;;;18.59;100.00
11223;BME280;5668;52.012;8.724;2023-07-31T07:04:52;99430.81;;;18.62;100.00
11223;BME280;5668;52.012;8.724;2023-07-31T07:07:19;99423.56;;;18.64;100.00
11223;BME280;5668;52.012;8.724;2023-07-31T07:09:46;99424.56;;;18.78;100.00
11223;BME280;5668;52.012;8.724;2023-07-31T07:12:14;99420.81;;;18.72;100.00
11223;BME280;5668;52.012;8.724;2023-07-31T07:14:42;99420.66;;;18.74;100.00
11223;BME280;5668;52.012;8.724;2023-07-31T07:17:09;99424.09;;;18.74;100.00
11223;BME280;5668;52.012;8.724;2023-07-31T07:19:39;99418.84;;;18.74;100.00
11223;BME280;5668;52.012;8.724;2023-07-31T07:22:07;99427.38;;;18.76;100.00
11223;BME280;5668;52.012;8.724;2023-07-31T07:24:34;99422.09;;;18.76;100.00
11223;BME280;5668;52.012;8.724;2023-07-31T07:27:01;99432.28;;;18.79;100.00
11223;BME280;5668;52.012;8.724;2023-07-31T07:29:30;99431.25;;;18.80;100.00
11223;BME280;5668;52.012;8.724;2023-07-31T07:31:57;99426.00;;;18.80;100.00
11223;BME280;5668;52.012;8.724;2023-07-31T07:34:25;99431.91;;;18.82;100.00
11223;BME280;5668;52.012;8.724;2023-07-31T07:36:52;99423.44;;;18.87;100.00
11223;BME280;5668;52.012;8.724;2023-07-31T07:39:19;99431.34;;;18.87;100.00
11223;BME280;5668;52.012;8.724;2023-07-31T07:41:47;99425.28;;;18.86;100.00
11223;BME280;5668;52.012;8.724;2023-07-31T07:44:14;99421.03;;;18.85;100.00
11223;BME280;5668;52.012;8.724;2023-07-31T07:46:43;99423.28;;;18.88;100.00
11223;BME280;5668;52.012;8.724;2023-07-31T07:49:10;99419.66;;;18.89;100.00
11223;BME280;5668;52.012;8.724;2023-07-31T07:51:37;99411.75;;;18.89;100.00
11223;BME280;5668;52.012;8.724;2023-07-31T07:54:04;99413.75;;;18.87;100.00
11223;BME280;5668;52.012;8.724;2023-07-31T07:56:33;99410.28;;;18.87;100.00
11223;BME280;5668;52.012;8.724;2023-07-31T07:59:02;99409.69;;;18.85;100.00
11223;BME280;5668;52.012;8.724;2023-07-31T08:01:29;99420.22;;;18.85;100.00
11223;BME280;5668;52.012;8.724;2023-07-31T08:03:58;99414.47;;;18.81;100.00
11223;BME280;5668;52.012;8.724;2023-07-31T08:06:25;99406.41;;;18.83;100.00
11223;BME280;5668;52.012;8.724;2023-07-31T08:08:53;99408.84;;;18.84;100.00
11223;BME280;5668;52.012;8.724;2023-07-31T08:11:20;99411.66;;;18.83;100.00
11223;BME280;5668;52.012;8.724;2023-07-31T08:13:48;99409.69;;;18.85;100.00
11223;BME280;5668;52.012;8.724;2023-07-31T08:16:15;99404.41;;;18.85;100.00
11223;BME280;5668;52.012;8.724;2023-07-31T08:18:42;99401.59;;;18.86;100.00
11223;BME280;5668;52.012;8.724;2023-07-31T08:21:11;99405.84;;;18.87;100.00
11223;BME280;5668;52.012;8.724;2023-07-31T08:23:38;99401.41;;;18.88;100.00
11223;BME280;5668;52.012;8.724;2023-07-31T08:26:05;99390.03;;;18.87;100.00
11223;BME280;5668;52.012;8.724;2023-07-31T08:28:32;99392.06;;;18.85;100.00
11223;BME280;5668;52.012;8.724;2023-07-31T08:31:01;99389.59;;;18.84;100.00
11223;BME280;5668;52.012;8.724;2023-07-31T08:33:28;99372.63;;;18.86;100.00
11223;BME280;5668;52.012;8.724;2023-07-31T08:35:55;99367.97;;;18.88;100.00
11223;BME280;5668;52.012;8.724;2023-07-31T08:38:23;99371.59;;;18.87;100.00
11223;BME280;5668;52.012;8.724;2023-07-31T08:40:51;99362.34;;;18.91;100.00
11223;BME280;5668;52.012;8.724;2023-07-31T08:43:21;99347.00;;;18.95;100.00
11223;BME280;5668;52.012;8.724;2023-07-31T08:45:51;99334.63;;;18.95;100.00
11223;BME280;5668;52.012;8.724;2023-07-31T08:48:19;99333.47;;;18.98;100.00
11223;BME280;5668;52.012;8.724;2023-07-31T08:50:46;99338.91;;;18.97;100.00
11223;BME280;5668;52.012;8.724;2023-07-31T08:53:13;99337.56;;;19.01;100.00
11223;BME280;5668;52.012;8.724;2023-07-31T08:55:44;99333.94;;;19.02;100.00
11223;BME280;5668;52.012;8.724;2023-07-31T08:58:13;99337.34;;;19.02;100.00
11223;BME280;5668;52.012;8.724;2023-07-31T09:00:41;99339.81;;;19.04;100.00
11223;BME280;5668;52.012;8.724;2023-07-31T09:03:14;99330.28;;;19.03;100.00
11223;BME280;5668;52.012;8.724;2023-07-31T09:05:43;99340.25;;;19.07;100.00
11223;BME280;5668;52.012;8.724;2023-07-31T09:08:11;99335.06;;;19.14;100.00
11223;BME280;5668;52.012;8.724;2023-07-31T09:10:43;99342.22;;;19.20;100.00
11223;BME280;5668;52.012;8.724;2023-07-31T09:13:12;99339.22;;;19.23;100.00
11223;BME280;5668;52.012;8.724;2023-07-31T09:15:40;99340.84;;;19.24;100.00
11223;BME280;5668;52.012;8.724;2023-07-31T09:18:09;99356.28;;;19.27;100.00
11223;BME280;5668;52.012;8.724;2023-07-31T09:20:37;99345.09;;;19.25;100.00
11223;BME280;5668;52.012;8.724;2023-07-31T09:23:09;99343.69;;;19.22;100.00
11223;BME280;5668;52.012;8.724;2023-07-31T09:25:37;99347.13;;;19.23;100.00
11223;BME280;5668;52.012;8.724;2023-07-31T09:28:08;99349.75;;;19.23;100.00
11223;BME280;5668;52.012;8.724;2023-07-31T09:30:46;99336.84;;;19.28;100.00
11223;BME280;5668;52.012;8.724;2023-07-31T09:33:14;99335.19;;;19.27;100.00
11223;BME280;5668;52.012;8.724;2023-07-31T09:35:42;99333.56;;;19.26;100.00
11223;BME280;5668;52.012;8.724;2023-07-31T09:38:11;99328.81;;;19.36;100.00
11223;BME280;5668;52.012;8.724;2023-07-31T09:40:40;99336.97;;;19.41;100.00
11223;BME280;5668;52.012;8.724;2023-07-31T09:43:10;99335.88;;;19.50;100.00
11223;BME280;5668;52.012;8.724;2023-07-31T09:45:40;99320.94;;;19.57;100.00
11223;BME280;5668;52.012;8.724;2023-07-31T09:48:08;99320.56;;;19.60;100.00
11223;BME280;5668;52.012;8.724;2023-07-31T09:50:37;99322.81;;;19.63;100.00
11223;BME280;5668;52.012;8.724;2023-07-31T09:53:05;99320.81;;;19.65;100.00
11223;BME280;5668;52.012;8.724;2023-07-31T09:55:33;99317.34;;;19.65;100.00
11223;BME280;5668;52.012;8.724;2023-07-31T09:58:03;99311.31;;;19.71;100.00
11223;BME280;5668;52.012;8.724;2023-07-31T10:00:33;99311.13;;;19.73;100.00
11223;BME280;5668;52.012;8.724;2023-07-31T10:03:01;99313.75;;;19.73;100.00
11223;BME280;5668;52.012;8.724;2023-07-31T10:05:34;99311.31;;;19.71;100.00
11223;BME280;5668;52.012;8.724;2023-07-31T10:08:01;99311.31;;;19.71;100.00
11223;BME280;5668;52.012;8.724;2023-07-31T10:10:29;99312.75;;;19.74;100.00
11223;BME280;5668;52.012;8.724;2023-07-31T10:12:57;99317.03;;;19.75;100.00
11223;BME280;5668;52.012;8.724;2023-07-31T10:15:26;99302.22;;;19.74;100.00
11223;BME280;5668;52.012;8.724;2023-07-31T10:17:56;99312.56;;;19.75;100.00
11223;BME280;5668;52.012;8.724;2023-07-31T10:20:23;99298.00;;;19.79;100.00
11223;BME280;5668;52.012;8.724;2023-07-31T10:22:52;99306.16;;;19.84;100.00
11223;BME280;5668;52.012;8.724;2023-07-31T10:25:22;99296.84;;;19.88;100.00
11223;BME280;5668;52.012;8.724;2023-07-31T10:27:49;99301.53;;;19.93;100.00
11223;BME280;5668;52.012;8.724;2023-07-31T10:30:22;99299.13;;;19.91;100.00
11223;BME280;5668;52.012;8.724;2023-07-31T10:32:52;99305.41;;;19.90;100.00
11223;BME280;5668;52.012;8.724;2023-07-31T10:35:21;99305.00;;;19.93;100.00
11223;BME280;5668;52.012;8.724;2023-07-31T10:37:49;99303.81;;;19.96;100.00
11223;BME280;5668;52.012;8.724;2023-07-31T10:40:18;99303.97;;;19.94;100.00
11223;BME280;5668;52.012;8.724;2023-07-31T10:42:48;99295.25;;;19.94;100.00
11223;BME280;5668;52.012;8.724;2023-07-31T10:45:26;99294.25;;;19.95;100.00
11223;BME280;5668;52.012;8.724;2023-07-31T10:47:59;99292.44;;;19.95;100.00
11223;BME280;5668;52.012;8.724;2023-07-31T10:50:29;99291.25;;;19.98;100.00
11223;BME280;5668;52.012;8.724;2023-07-31T10:52:59;99291.63;;;19.95;100.00
11223;BME280;5668;52.012;8.724;2023-07-31T10:55:31;99286.13;;;19.90;100.00
11223;BME280;5668;52.012;8.724;2023-07-31T10:58:05;99292.97;;;19.84;100.00
11223;BME280;5668;52.012;8.724;2023-07-31T11:00:33;99284.63;;;19.81;100.00
11223;BME280;5668;52.012;8.724;2023-07-31T11:03:05;99288.25;;;19.80;100.00
11223;BME280;5668;52.012;8.724;2023-07-31T11:05:48;99286.22;;;19.75;100.00
11223;BME280;5668;52.012;8.724;2023-07-31T11:08:17;99282.13;;;19.73;100.00
11223;BME280;5668;52.012;8.724;2023-07-31T11:10:46;99289.47;;;19.77;100.00
11223;BME280;5668;52.012;8.724;2023-07-31T11:13:14;99283.63;;;19.82;100.00
11223;BME280;5668;52.012;8.724;2023-07-31T11:15:41;99286.25;;;19.82;100.00
11223;BME280;5668;52.012;8.724;2023-07-31T11:18:08;99283.81;;;19.80;100.00
11223;BME280;5668;52.012;8.724;2023-07-31T11:20:37;99285.06;;;19.84;100.00
11223;BME280;5668;52.012;8.724;2023-07-31T11:23:09;99292.38;;;19.89;100.00
11223;BME280;5668;52.012;8.724;2023-07-31T11:25:36;99282.22;;;19.86;100.00
11223;BME280;5668;52.012;8.724;2023-07-31T11:28:09;99291.13;;;19.85;100.00
11223;BME280;5668;52.012;8.724;2023-07-31T11:30:36;99286.75;;;20.26;100.00
11223;BME280;5668;52.012;8.724;2023-07-31T11:33:05;99275.47;;;20.04;100.00
11223;BME280;5668;52.012;8.724;2023-07-31T11:35:33;99278.44;;;19.95;100.00
11223;BME280;5668;52.012;8.724;2023-07-31T11:38:01;99281.47;;;19.92;100.00
11223;BME280;5668;52.012;8.724;2023-07-31T11:40:30;99275.13;;;19.86;100.00
11223;BME280;5668;52.012;8.724;2023-07-31T11:42:58;99269.16;;;19.78;100.00
11223;BME280;5668;52.012;8.724;2023-07-31T11:45:26;99269.56;;;19.75;100.00
11223;BME280;5668;52.012;8.724;2023-07-31T11:47:55;99265.31;;;19.74;100.00
11223;BME280;5668;52.012;8.724;2023-07-31T11:50:23;99273.66;;;19.77;100.00
11223;BME280;5668;52.012;8.724;2023-07-31T11:52:53;99267.16;;;19.80;100.00
11223;BME280;5668;52.012;8.724;2023-07-31T11:55:23;99275.72;;;19.82;100.00
11223;BME280;5668;52.012;8.724;2023-07-31T11:57:53;99265.78;;;20.18;100.00
11223;BME280;5668;52.012;8.724;2023-07-31T12:00:22;99260.19;;;20.00;100.00
11223;BME280;5668;52.012;8.724;2023-07-31T12:02:50;99260.41;;;19.98;100.00
11223;BME280;5668;52.012;8.724;2023-07-31T12:05:18;99273.59;;;19.98;100.00
11223;BME280;5668;52.012;8.724;2023-07-31T12:07:47;99258.59;;;19.99;100.00
11223;BME280;5668;52.012;8.724;2023-07-31T12:10:25;99261.22;;;19.99;100.00
11223;BME280;5668;52.012;8.724;2023-07-31T12:13:12;99268.91;;;20.00;100.00
11223;BME280;5668;52.012;8.724;2023-07-31T12:15:47;99264.47;;;20.01;100.00
11223;BME280;5668;52.012;8.724;2023-07-31T12:18:18;99250.47;;;20.00;100.00
11223;BME280;5668;52.012;8.724;2023-07-31T12:20:47;99260.00;;;20.01;100.00
11223;BME280;5668;52.012;8.724;2023-07-31T12:23:16;99257.56;;;20.00;100.00
11223;BME280;5668;52.012;8.724;2023-07-31T12:25:43;99247.41;;;19.97;100.00
11223;BME280;5668;52.012;8.724;2023-07-31T12:28:12;99254.72;;;20.01;100.00
11223;BME280;5668;52.012;8.724;2023-07-31T12:30:40;99253.34;;;20.05;100.00
11223;BME280;5668;52.012;8.724;2023-07-31T12:33:13;99251.94;;;20.09;100.00
11223;BME280;5668;52.012;8.724;2023-07-31T12:35:44;99244.22;;;20.08;100.00
11223;BME280;5668;52.012;8.724;2023-07-31T12:38:12;99240.19;;;20.12;100.00
11223;BME280;5668;52.012;8.724;2023-07-31T12:40:40;99242.44;;;20.15;100.00
11223;BME280;5668;52.012;8.724;2023-07-31T12:43:08;99241.00;;;20.13;100.00
11223;BME280;5668;52.012;8.724;2023-07-31T12:45:36;99239.78;;;20.15;100.00
11223;BME280;5668;52.012;8.724;2023-07-31T12:48:04;99243.47;;;20.14;100.00
11223;BME280;5668;52.012;8.724;2023-07-31T12:50:31;99233.28;;;20.11;100.00
11223;BME280;5668;52.012;8.724;2023-07-31T12:52:59;99241.19;;;20.11;100.00
11223;BME280;5668;52.012;8.724;2023-07-31T12:55:26;99233.66;;;20.08;100.00
11223;BME280;5668;52.012;8.724;2023-07-31T12:57:53;99242.59;;;20.07;100.00
11223;BME280;5668;52.012;8.724;2023-07-31T13:00:21;99238.13;;;20.07;100.00
11223;BME280;5668;52.012;8.724;2023-07-31T13:02:50;99245.25;;;20.07;100.00
11223;BME280;5668;52.012;8.724;2023-07-31T13:05:17;99248.88;;;20.06;100.00
11223;BME280;5668;52.012;8.724;2023-07-31T13:07:45;99240.97;;;20.06;100.00